createdAt,value
2022-11-21T00:02:37.400Z,98523.03
2022-11-21T00:05:44.816Z,98524.69
2022-11-21T00:08:47.506Z,98508.13
2022-11-21T00:11:52.003Z,98511.13
2022-11-21T00:14:54.266Z,98508.34
2022-11-21T00:17:56.554Z,98497.66
2022-11-21T00:21:04.836Z,98491.81
2022-11-21T00:24:07.368Z,98482.94
2022-11-21T00:27:09.581Z,98481.94
2022-11-21T00:30:13.395Z,98469.22
2022-11-21T00:33:15.670Z,98468.22
2022-11-21T00:36:17.933Z,98473.47
2022-11-21T00:39:20.216Z,98457.09
2022-11-21T00:42:22.479Z,98452.88
2022-11-21T00:45:24.888Z,98443.72
2022-11-21T00:48:27.156Z,98449.78
2022-11-21T00:51:29.407Z,98437.88
2022-11-21T00:54:31.639Z,98440.28
2022-11-21T00:57:33.891Z,98461.69
2022-11-21T01:00:36.183Z,98477.63
2022-11-21T01:03:39.094Z,98483.03
2022-11-21T01:06:41.448Z,98470.75
2022-11-21T01:09:43.728Z,98457.81
2022-11-21T01:12:46.038Z,98457.66
2022-11-21T01:15:49.472Z,98445.75
2022-11-21T01:18:52.026Z,98441.84
2022-11-21T01:21:54.259Z,98453.78
2022-11-21T01:24:56.599Z,98441.03
2022-11-21T01:27:58.843Z,98443.66
2022-11-21T01:31:13.755Z,98438.88
2022-11-21T01:34:16.604Z,98434.81
2022-11-21T01:37:18.876Z,98439.84
2022-11-21T01:40:21.076Z,98442.25
2022-11-21T01:43:23.293Z,98443.22
2022-11-21T01:46:26.348Z,98442.25
2022-11-21T01:49:32.620Z,98441.41
2022-11-21T01:52:35.029Z,98436.19
2022-11-21T01:55:37.474Z,98433.13
2022-11-21T01:58:42.320Z,98420.47
2022-11-21T02:01:46.220Z,98425.88
2022-11-21T02:04:48.846Z,98424.06
2022-11-21T02:07:54.987Z,98415.78
2022-11-21T02:11:12.047Z,98417.41
2022-11-21T02:14:14.317Z,98416.59
2022-11-21T02:17:18.391Z,98417.84
2022-11-21T02:20:26.501Z,98412.97
2022-11-21T02:23:47.600Z,98420.47
2022-11-21T02:26:50.024Z,98422.25
2022-11-21T02:29:52.411Z,98404.69
2022-11-21T02:32:55.720Z,98420.63
2022-11-21T02:35:59.872Z,98422.66
2022-11-21T02:39:02.357Z,98422.09
2022-11-21T02:42:42.392Z,98418.66
2022-11-21T02:45:46.687Z,98411.78
2022-11-21T02:48:49.021Z,98415.59
2022-11-21T02:51:51.327Z,98419.03
2022-11-21T02:54:53.582Z,98420.19
2022-11-21T02:57:59.039Z,98421.00
2022-11-21T03:01:03.988Z,98413.97
2022-11-21T03:04:06.611Z,98419.03
2022-11-21T03:07:08.934Z,98416.59
2022-11-21T03:10:11.830Z,98420.84
2022-11-21T03:13:14.091Z,98414.34
2022-11-21T03:16:16.356Z,98411.34
2022-11-21T03:19:18.574Z,98407.38
2022-11-21T03:22:20.824Z,98412.41
2022-11-21T03:25:23.089Z,98405.34
2022-11-21T03:28:25.286Z,98408.19
2022-11-21T03:31:27.531Z,98402.56
2022-11-21T03:34:30.202Z,98404.19
2022-11-21T03:37:32.533Z,98399.13
2022-11-21T03:40:34.773Z,98392.25
2022-11-21T03:43:36.953Z,98385.03
2022-11-21T03:46:46.337Z,98392.25
2022-11-21T03:49:48.592Z,98396.50
2022-11-21T03:52:50.841Z,98389.47
2022-11-21T03:55:53.100Z,98393.06
2022-11-21T03:58:55.450Z,98390.44
2022-11-21T04:01:57.698Z,98380.34
2022-11-21T04:04:59.956Z,98377.56
2022-11-21T04:08:02.154Z,98375.53
2022-11-21T04:11:04.454Z,98366.44
2022-11-21T04:14:06.757Z,98353.53
2022-11-21T04:17:09.173Z,98358.19
2022-11-21T04:20:11.735Z,98347.94
2022-11-21T04:23:14.233Z,98349.13
2022-11-21T04:26:16.588Z,98351.53
2022-11-21T04:29:18.829Z,98334.41
2022-11-21T04:32:21.053Z,98329.16
2022-11-21T04:35:24.982Z,98334.19
2022-11-21T04:38:27.407Z,98326.91
2022-11-21T04:41:29.919Z,98331.56
2022-11-21T04:44:32.158Z,98325.72
2022-11-21T04:47:43.011Z,98307.75
2022-11-21T04:50:45.966Z,98311.63
2022-11-21T04:53:48.226Z,98308.38
2022-11-21T04:56:50.516Z,98303.13
2022-11-21T04:59:52.713Z,98310.66
2022-11-21T05:02:54.926Z,98306.59
2022-11-21T05:14:30.998Z,98310.88
2022-11-21T05:17:33.307Z,98316.16
2022-11-21T05:20:36.931Z,98305.47
2022-11-21T05:23:39.404Z,98303.88
2022-11-21T05:26:41.723Z,98304.50
2022-11-21T05:29:44.011Z,98307.75
2022-11-21T05:32:46.267Z,98304.72
2022-11-21T05:35:48.566Z,98298.44
2022-11-21T05:39:16.041Z,98289.38
2022-11-21T05:42:38.315Z,98287.34
2022-11-21T05:45:40.510Z,98296.25
2022-11-21T05:48:42.865Z,98300.31
2022-11-21T05:51:45.137Z,98303.53
2022-11-21T05:54:47.333Z,98308.97
2022-11-21T05:57:49.579Z,98305.56
2022-11-21T06:00:59.925Z,98308.19
2022-11-21T06:04:02.638Z,98304.34
2022-11-21T06:07:06.223Z,98314.63
2022-11-21T06:10:08.610Z,98308.56
2022-11-21T06:13:22.236Z,98310.84
2022-11-21T06:16:24.657Z,98311.44
2022-11-21T06:19:26.919Z,98305.97
2022-11-21T06:22:29.135Z,98307.59
2022-11-21T06:25:31.373Z,98308.25
2022-11-21T06:28:36.339Z,98308.59
2022-11-21T06:31:38.548Z,98306.41
2022-11-21T06:34:46.893Z,98312.88
2022-11-21T06:37:53.383Z,98317.13
2022-11-21T06:40:56.304Z,98318.13
2022-11-21T06:44:02.831Z,98327.44
2022-11-21T06:47:05.209Z,98325.25
2022-11-21T06:50:08.036Z,98335.56
2022-11-21T06:53:10.328Z,98340.00
2022-11-21T06:56:12.916Z,98350.09
2022-11-21T06:59:15.152Z,98354.53
2022-11-21T07:02:17.426Z,98352.75
2022-11-21T07:05:52.686Z,98358.56
2022-11-21T07:09:25.213Z,98354.91
2022-11-21T07:12:35.868Z,98358.97
2022-11-21T07:15:38.128Z,98353.94
2022-11-21T07:18:41.663Z,98354.53
2022-11-21T07:21:43.941Z,98360.00
2022-11-21T07:24:46.225Z,98357.16
2022-11-21T07:27:52.787Z,98357.50
2022-11-21T07:30:59.663Z,98364.44
2022-11-21T07:34:34.105Z,98357.31
2022-11-21T07:37:46.009Z,98353.41
2022-11-21T07:40:53.095Z,98330.31
2022-11-21T07:43:55.416Z,98351.56
2022-11-21T07:46:57.748Z,98352.75
2022-11-21T07:50:01.532Z,98349.72
2022-11-21T07:53:06.257Z,98358.22
2022-11-21T07:56:09.849Z,98374.59
2022-11-21T07:59:18.551Z,98360.84
2022-11-21T08:02:38.479Z,98350.94
2022-11-21T08:05:42.747Z,98347.72
2022-11-21T08:08:45.295Z,98363.97
2022-11-21T08:12:07.993Z,98369.22
2022-11-21T08:15:39.846Z,98368.44
2022-11-21T08:18:42.059Z,98372.91
2022-11-21T08:21:44.349Z,98375.53
2022-11-21T08:24:46.743Z,98369.84
2022-11-21T08:27:49.087Z,98377.53
2022-11-21T08:30:51.366Z,98369.63
2022-11-21T08:34:16.831Z,98383.59
2022-11-21T08:37:47.185Z,98396.38
2022-11-21T08:41:12.208Z,98392.94
2022-11-21T08:44:24.285Z,98382.66
2022-11-21T08:47:59.011Z,98393.78
2022-11-21T08:51:01.341Z,98390.16
2022-11-21T08:54:03.962Z,98377.56
2022-11-21T08:57:21.360Z,98388.13
2022-11-21T09:00:23.794Z,98398.66
2022-11-21T09:03:30.841Z,98391.25
2022-11-21T09:06:34.443Z,98375.88
2022-11-21T09:09:36.884Z,98388.44
2022-11-21T09:12:39.229Z,98396.34
2022-11-21T09:16:00.275Z,98386.00
2022-11-21T09:19:22.829Z,98368.19
2022-11-21T09:22:29.223Z,98387.22
2022-11-21T09:25:35.576Z,98381.56
2022-11-21T09:28:38.302Z,98379.13
2022-11-21T09:31:41.734Z,98383.38
2022-11-21T09:34:44.064Z,98388.47
2022-11-21T09:37:47.055Z,98394.72
2022-11-21T09:40:49.556Z,98395.69
2022-11-21T09:44:17.883Z,98406.03
2022-11-21T09:47:43.276Z,98401.59
2022-11-21T09:50:59.399Z,98401.59
2022-11-21T09:54:27.232Z,98404.63
2022-11-21T09:58:09.356Z,98391.66
2022-11-21T10:01:33.389Z,98402.00
2022-11-21T10:04:35.760Z,98408.47
2022-11-21T10:07:38.451Z,98403.59
2022-11-21T10:10:50.606Z,98394.16
2022-11-21T10:13:59.004Z,98394.97
2022-11-21T10:17:34.492Z,98376.56
2022-11-21T10:21:37.656Z,98387.91
2022-11-21T10:29:28.462Z,98377.63
2022-11-21T10:32:37.548Z,98367.13
2022-11-21T10:35:43.712Z,98361.28
2022-11-21T10:38:58.534Z,98361.88
2022-11-21T10:42:24.773Z,98360.66
2022-11-21T10:45:42.339Z,98358.66
2022-11-21T10:49:10.320Z,98352.19
2022-11-21T10:57:02.180Z,98330.53
2022-11-21T11:00:20.731Z,98345.13
2022-11-21T11:03:23.066Z,98352.59
2022-11-21T11:06:30.229Z,98356.03
2022-11-21T11:09:34.861Z,98350.16
2022-11-21T11:12:56.280Z,98353.19
2022-11-21T11:16:15.363Z,98350.56
2022-11-21T11:20:02.942Z,98335.41
2022-11-21T11:24:16.401Z,98312.97
2022-11-21T11:27:51.507Z,98330.59
2022-11-21T11:30:55.682Z,98329.81
2022-11-21T11:34:04.231Z,98328.16
2022-11-21T11:37:14.287Z,98317.44
2022-11-21T11:40:41.039Z,98305.53
2022-11-21T11:44:19.174Z,98305.13
2022-11-21T11:47:43.176Z,98296.84
2022-11-21T11:51:37.565Z,98312.41
2022-11-21T11:55:21.516Z,98303.31
2022-11-21T11:59:10.541Z,98306.78
2022-11-21T12:02:23.728Z,98289.78
2022-11-21T12:05:31.431Z,98283.13
2022-11-21T12:08:42.963Z,98289.78
2022-11-21T12:12:16.051Z,98280.28
2022-11-21T12:19:28.703Z,98268.59
2022-11-21T12:36:44.501Z,98257.69
2022-11-21T12:40:00.700Z,98255.03
2022-11-21T12:52:15.028Z,98242.31
2022-11-21T12:55:38.626Z,98242.09
2022-11-21T12:58:49.236Z,98239.88
2022-11-21T13:02:16.695Z,98248.97
2022-11-21T13:06:22.604Z,98249.78
2022-11-21T13:09:27.700Z,98253.41
2022-11-21T13:12:41.106Z,98260.09
2022-11-21T13:20:49.385Z,98225.75
2022-11-21T13:23:51.807Z,98255.44
2022-11-21T13:31:34.257Z,98249.97
2022-11-21T13:34:44.589Z,98262.53
2022-11-21T13:38:08.752Z,98251.59
2022-11-21T13:42:33.822Z,98261.91
2022-11-21T13:46:03.611Z,98228.56
2022-11-21T13:49:19.336Z,98254.22
2022-11-21T13:52:34.113Z,98267.16
2022-11-21T13:55:39.194Z,98263.75
2022-11-21T13:59:02.137Z,98262.94
2022-11-21T14:02:09.034Z,98268.19
2022-11-21T14:05:38.128Z,98253.25
2022-11-21T14:08:40.839Z,98277.88
2022-11-21T14:12:00.392Z,98248.97
2022-11-21T14:15:47.257Z,98269.41
2022-11-21T14:18:55.145Z,98244.31
2022-11-21T14:22:00.552Z,98257.69
2022-11-21T14:25:14.312Z,98255.66
2022-11-21T14:28:26.966Z,98247.97
2022-11-21T14:31:54.749Z,98274.66
2022-11-21T14:35:21.606Z,98280.09
2022-11-21T14:38:30.256Z,98275.25
2022-11-21T14:41:43.110Z,98277.28
2022-11-21T14:45:39.260Z,98277.06
2022-11-21T14:48:50.858Z,98283.13
2022-11-21T14:52:00.375Z,98286.75
2022-11-21T14:55:29.572Z,98286.97
2022-11-21T14:58:36.087Z,98268.59
2022-11-21T15:01:47.781Z,98288.97
2022-11-21T15:06:00.277Z,98290.41
2022-11-21T15:13:20.793Z,98299.88
2022-11-21T15:20:12.626Z,98282.91
2022-11-21T15:23:47.186Z,98309.56
2022-11-21T15:26:49.525Z,98307.34
2022-11-21T15:30:10.116Z,98311.44
2022-11-21T15:33:12.336Z,98315.88
2022-11-21T15:36:14.784Z,98319.28
2022-11-21T15:39:23.350Z,98324.13
2022-11-21T15:42:32.063Z,98321.28
2022-11-21T15:45:34.442Z,98327.53
2022-11-21T15:48:36.743Z,98322.09
2022-11-21T15:52:06.729Z,98323.91
2022-11-21T15:55:17.739Z,98324.13
2022-11-21T15:58:20.069Z,98312.97
2022-11-21T16:01:29.937Z,98322.69
2022-11-21T16:04:32.340Z,98303.28
2022-11-21T16:07:34.631Z,98290.94
2022-11-21T16:10:37.342Z,98309.94
2022-11-21T16:13:41.337Z,98311.16
2022-11-21T16:16:44.473Z,98302.88
2022-11-21T16:19:46.755Z,98307.13
2022-11-21T16:22:50.076Z,98305.72
2022-11-21T16:25:54.323Z,98298.03
2022-11-21T16:28:58.257Z,98297.03
2022-11-21T16:32:00.573Z,98286.28
2022-11-21T16:35:03.223Z,98307.13
2022-11-21T16:38:09.882Z,98294.97
2022-11-21T16:41:12.727Z,98298.81
2022-11-21T16:44:16.684Z,98294.16
2022-11-21T16:47:18.991Z,98294.78
2022-11-21T16:50:22.156Z,98307.69
2022-11-21T16:53:24.408Z,98309.91
2022-11-21T16:56:27.236Z,98302.25
2022-11-21T16:59:29.801Z,98309.09
2022-11-21T17:02:32.236Z,98311.94
2022-11-21T17:05:34.459Z,98318.00
2022-11-21T17:08:37.205Z,98310.88
2022-11-21T17:11:39.480Z,98316.53
2022-11-21T17:14:41.809Z,98315.56
2022-11-21T17:17:44.100Z,98309.66
2022-11-21T17:20:46.313Z,98312.28
2022-11-21T17:23:49.409Z,98320.75
2022-11-21T17:26:51.653Z,98315.91
2022-11-21T17:29:54.004Z,98322.78
2022-11-21T17:32:56.339Z,98326.41
2022-11-21T17:35:58.601Z,98324.16
2022-11-21T17:39:00.900Z,98321.72
2022-11-21T17:42:03.304Z,98323.56
2022-11-21T17:45:06.128Z,98318.72
2022-11-21T17:48:08.415Z,98325.38
2022-11-21T17:51:17.435Z,98320.91
2022-11-21T17:54:19.681Z,98328.56
2022-11-21T17:57:21.950Z,98324.53
2022-11-21T18:00:24.522Z,98329.38
2022-11-21T18:03:27.719Z,98333.81
2022-11-21T18:06:40.128Z,98327.16
2022-11-21T18:09:42.384Z,98327.34
2022-11-21T18:12:44.638Z,98325.91
2022-11-21T18:15:48.126Z,98323.69
2022-11-21T18:18:51.542Z,98320.06
2022-11-21T18:21:53.854Z,98331.00
2022-11-21T18:24:56.772Z,98315.44
2022-11-21T18:27:59.029Z,98313.81
2022-11-21T18:31:16.998Z,98310.78
2022-11-21T18:34:19.370Z,98317.03
2022-11-21T18:37:22.604Z,98318.66
2022-11-21T18:40:24.934Z,98302.88
2022-11-21T18:43:27.189Z,98320.47
2022-11-21T18:46:32.130Z,98326.88
2022-11-21T18:49:34.766Z,98320.03
2022-11-21T18:52:40.938Z,98320.03
2022-11-21T18:55:45.832Z,98311.75
2022-11-21T18:58:48.862Z,98303.06
2022-11-21T19:01:51.280Z,98308.75
2022-11-21T19:04:53.669Z,98304.06
2022-11-21T19:07:55.962Z,98302.06
2022-11-21T19:11:02.704Z,98303.06
2022-11-21T19:14:05.165Z,98301.66
2022-11-21T19:17:07.406Z,98305.28
2022-11-21T19:20:10.350Z,98296.97
2022-11-21T19:23:12.906Z,98309.69
2022-11-21T19:26:17.709Z,98314.94
2022-11-21T19:29:20.071Z,98316.97
2022-11-21T19:32:22.457Z,98316.97
2022-11-21T19:35:25.102Z,98313.72
2022-11-21T19:38:27.570Z,98311.72
2022-11-21T19:41:30.807Z,98320.78
2022-11-21T19:44:33.699Z,98319.78
2022-11-21T19:47:36.270Z,98323.41
2022-11-21T19:50:38.691Z,98328.66
2022-11-21T19:53:41.075Z,98326.63
2022-11-21T19:56:43.417Z,98331.84
2022-11-21T19:59:46.984Z,98328.25
2022-11-21T20:02:49.376Z,98327.59
2022-11-21T20:05:52.464Z,98333.88
2022-11-21T20:09:01.098Z,98328.00
2022-11-21T20:12:03.688Z,98341.09
2022-11-21T20:15:06.480Z,98334.44
2022-11-21T20:18:08.791Z,98342.31
2022-11-21T20:21:12.342Z,98334.44
2022-11-21T20:24:15.000Z,98336.06
2022-11-21T20:27:17.280Z,98339.69
2022-11-21T20:30:24.888Z,98327.78
2022-11-21T20:33:27.097Z,98329.59
2022-11-21T20:36:31.299Z,98327.16
2022-11-21T20:39:33.692Z,98322.94
2022-11-21T20:42:37.401Z,98321.28
2022-11-21T20:49:02.240Z,98322.50
2022-11-21T20:55:27.067Z,98317.25
2022-11-21T20:58:34.642Z,98318.44
2022-11-21T21:01:36.989Z,98304.09
2022-11-21T21:04:39.870Z,98307.16
2022-11-21T21:07:42.225Z,98307.34
2022-11-21T21:11:05.099Z,98299.47
2022-11-21T21:14:06.958Z,98301.91
2022-11-21T21:17:09.204Z,98295.22
2022-11-21T21:20:11.529Z,98293.63
2022-11-21T21:23:13.797Z,98280.09
2022-11-21T21:26:19.938Z,98273.22
2022-11-21T21:29:22.257Z,98271.22
2022-11-21T21:32:24.609Z,98270.19
2022-11-21T21:35:26.988Z,98267.97
2022-11-21T21:38:29.547Z,98264.75
2022-11-21T21:41:33.042Z,98272.41
2022-11-21T21:44:35.815Z,98269.19
2022-11-21T21:47:38.351Z,98268.97
2022-11-21T21:50:40.669Z,98271.16
2022-11-21T21:53:43.925Z,98257.00
2022-11-21T21:56:47.742Z,98269.56
2022-11-21T21:59:50.000Z,98272.78
2022-11-21T22:02:52.263Z,98274.81
2022-11-21T22:05:54.783Z,98270.38
2022-11-21T22:08:57.146Z,98280.44
2022-11-21T22:11:59.482Z,98269.31
2022-11-21T22:15:01.819Z,98274.19
2022-11-21T22:18:04.210Z,98274.78
2022-11-21T22:21:13.620Z,98281.44
2022-11-21T22:24:27.486Z,98279.19
2022-11-21T22:27:31.937Z,98281.00
2022-11-21T22:30:34.205Z,98269.53
2022-11-21T22:33:37.768Z,98275.16
2022-11-21T22:36:40.197Z,98274.78
2022-11-21T22:39:42.484Z,98274.78
2022-11-21T22:42:44.833Z,98283.63
2022-11-21T22:45:47.317Z,98286.06
2022-11-21T22:48:50.127Z,98278.59
2022-11-21T22:51:55.608Z,98277.41
2022-11-21T22:54:58.178Z,98283.63
2022-11-21T22:58:00.541Z,98277.16
2022-11-21T23:01:12.245Z,98277.16
2022-11-21T23:04:17.667Z,98284.63
2022-11-21T23:07:20.229Z,98278.59
2022-11-21T23:10:22.578Z,98276.97
2022-11-21T23:13:24.814Z,98268.28
2022-11-21T23:16:27.185Z,98261.00
2022-11-21T23:19:29.946Z,98259.00
2022-11-21T23:22:32.374Z,98263.06
2022-11-21T23:25:34.594Z,98254.38
2022-11-21T23:28:36.842Z,98245.91
2022-11-21T23:31:39.261Z,98245.91
2022-11-21T23:34:41.567Z,98245.69
2022-11-21T23:37:43.773Z,98244.09
2022-11-21T23:40:46.755Z,98238.06
2022-11-21T23:43:49.014Z,98249.34
2022-11-21T23:46:51.382Z,98237.41
2022-11-21T23:49:53.735Z,98237.63
2022-11-21T23:52:56.431Z,98247.91
2022-11-21T23:55:58.815Z,98233.38
2022-11-21T23:59:01.106Z,98235.38
